Time;durP1;ratioP1;P1;durP2;ratioP2;P2;SDS_P1;SDS_P2;PMS_P1;PMS_P2;Temp;Humidity;BMP_temperature;BMP_pressure;BME280_temperature;BME280_humidity;BME280_pressure;Samples;Min_cycle;Max_cycle;Signal;HPM_P1;HPM_P2
2023/05/09 00:00:32;;;;;;;70.38;41.90;;;17.30;99.90;;;;;;6181887;23;20036;-73
2023/05/09 00:02:58;;;;;;;68.03;41.55;;;17.30;99.90;;;;;;6155918;23;20067;-73
2023/05/09 00:05:23;;;;;;;66.88;42.50;;;17.30;99.90;;;;;;6181286;23;19997;-73
2023/05/09 00:07:49;;;;;;;65.80;40.63;;;17.30;99.90;;;;;;6182263;23;20005;-73
2023/05/09 00:10:15;;;;;;;69.80;41.60;;;17.30;99.90;;;;;;6181831;23;20054;-73
2023/05/09 00:12:42;;;;;;;63.33;42.15;;;17.30;99.90;;;;;;6155654;23;20395;-73
2023/05/09 00:15:09;;;;;;;69.78;42.20;;;17.40;99.90;;;;;;6181760;23;20004;-73
2023/05/09 00:17:35;;;;;;;64.28;42.38;;;17.30;99.90;;;;;;6181901;23;20008;-73
2023/05/09 00:20:06;;;;;;;66.22;42.00;;;17.30;99.90;;;;;;6181390;23;20024;-73
2023/05/09 00:22:32;;;;;;;66.38;43.75;;;17.30;99.90;;;;;;6155348;23;20001;-73
2023/05/09 00:24:57;;;;;;;70.03;43.30;;;17.30;99.90;;;;;;6182210;23;20379;-73
2023/05/09 00:27:23;;;;;;;73.53;43.40;;;17.30;99.90;;;;;;6181246;23;20001;-73
2023/05/09 00:29:48;;;;;;;73.47;44.97;;;17.40;99.90;;;;;;6181981;23;20097;-73
2023/05/09 00:32:14;;;;;;;70.57;44.45;;;17.30;99.90;;;;;;6181323;23;20380;-73
2023/05/09 00:34:39;;;;;;;71.63;44.83;;;17.30;99.90;;;;;;6154829;23;20005;-73
2023/05/09 00:37:05;;;;;;;69.78;42.83;;;17.30;99.90;;;;;;6181919;23;20008;-73
2023/05/09 00:39:31;;;;;;;68.65;42.08;;;17.40;99.90;;;;;;6181613;23;20005;-73
2023/05/09 00:41:57;;;;;;;70.53;44.28;;;17.30;99.90;;;;;;6181604;23;20020;-73
2023/05/09 00:44:22;;;;;;;65.32;42.20;;;17.30;99.90;;;;;;6181203;23;20013;-73
2023/05/09 00:46:48;;;;;;;67.60;42.35;;;17.40;99.90;;;;;;6181834;23;20048;-73
2023/05/09 00:49:13;;;;;;;68.22;43.75;;;17.40;99.90;;;;;;6180479;23;20055;-72
2023/05/09 00:51:40;;;;;;;70.90;43.92;;;17.30;99.90;;;;;;6181953;23;19997;-73
2023/05/09 00:54:06;;;;;;;72.95;43.28;;;17.40;99.90;;;;;;6155044;23;20056;-72
2023/05/09 00:56:31;;;;;;;74.15;44.28;;;17.40;99.90;;;;;;6181731;23;20353;-73
2023/05/09 00:58:57;;;;;;;74.95;45.60;;;17.40;99.90;;;;;;6181697;23;20079;-73
2023/05/09 01:01:23;;;;;;;68.75;43.80;;;17.40;99.90;;;;;;6180975;23;20015;-73
2023/05/09 01:03:49;;;;;;;68.70;43.47;;;17.40;99.90;;;;;;6181177;23;20076;-72
2023/05/09 01:06:53;;;;;;;67.88;43.42;;;17.40;99.90;;;;;;6154182;23;20005;-73
2023/05/09 01:09:26;;;;;;;70.60;44.20;;;17.40;99.90;;;;;;6181180;23;20008;-73
2023/05/09 01:12:15;;;;;;;70.35;41.05;;;17.40;99.90;;;;;;6181590;23;20037;-73
2023/05/09 01:14:56;;;;;;;69.20;43.42;;;17.40;99.90;;;;;;6181343;23;20075;-73
2023/05/09 01:17:36;;;;;;;77.50;47.35;;;17.40;99.90;;;;;;6178841;23;20076;-73
2023/05/09 01:20:32;;;;;;;76.10;47.05;;;17.30;99.90;;;;;;6180132;23;20008;-73
2023/05/09 01:23:11;;;;;;;67.32;43.70;;;17.30;99.90;;;;;;6181483;23;20080;-72
2023/05/09 01:25:50;;;;;;;74.07;46.47;;;17.30;99.90;;;;;;6181238;23;20123;-72
2023/05/09 01:28:33;;;;;;;76.15;46.83;;;17.30;99.90;;;;;;6180714;23;20135;-73
2023/05/09 01:30:58;;;;;;;74.45;44.83;;;17.30;99.90;;;;;;6154546;23;20435;-73
2023/05/09 01:33:25;;;;;;;74.93;44.17;;;17.30;99.90;;;;;;6180666;23;20063;-73
2023/05/09 01:35:58;;;;;;;75.18;47.83;;;17.30;99.90;;;;;;6181387;23;20005;-73
2023/05/09 01:38:25;;;;;;;69.88;44.00;;;17.30;99.90;;;;;;6180356;23;20048;-72
2023/05/09 01:40:53;;;;;;;75.95;45.15;;;17.30;99.90;;;;;;6181296;23;20308;-73
2023/05/09 01:43:22;;;;;;;72.20;42.60;;;17.30;99.90;;;;;;6180195;23;20009;-72
2023/05/09 01:45:50;;;;;;;73.30;44.67;;;17.40;99.90;;;;;;6179954;23;20035;-73
2023/05/09 01:48:16;;;;;;;70.05;43.17;;;17.40;99.90;;;;;;6180228;23;20008;-72
2023/05/09 01:50:44;;;;;;;71.35;44.53;;;17.40;99.90;;;;;;6181080;23;20028;-73
2023/05/09 01:53:11;;;;;;;78.90;45.15;;;17.40;99.90;;;;;;6180682;23;20081;-72
2023/05/09 01:55:38;;;;;;;73.15;45.08;;;17.40;99.90;;;;;;6154845;23;20355;-72
2023/05/09 01:58:04;;;;;;;75.10;44.13;;;17.40;99.90;;;;;;6180536;23;20005;-73
2023/05/09 02:00:32;;;;;;;73.15;42.90;;;17.30;99.90;;;;;;6180069;23;20335;-73
2023/05/09 02:02:58;;;;;;;79.65;46.15;;;17.40;99.90;;;;;;6180899;23;19997;-73
2023/05/09 02:05:27;;;;;;;75.72;43.50;;;17.30;99.90;;;;;;6180332;23;20002;-73
2023/05/09 02:07:56;;;;;;;76.38;45.63;;;17.30;99.90;;;;;;6181052;23;20008;-73
2023/05/09 02:10:24;;;;;;;72.95;45.10;;;17.30;99.90;;;;;;6180285;23;20005;-72
2023/05/09 02:12:50;;;;;;;78.43;46.00;;;17.30;99.90;;;;;;6181011;23;20016;-73
2023/05/09 02:15:15;;;;;;;73.25;45.03;;;17.30;99.90;;;;;;6179930;23;20033;-73
2023/05/09 02:17:41;;;;;;;76.47;46.95;;;17.20;99.90;;;;;;6178908;23;20012;-72
2023/05/09 02:20:08;;;;;;;78.28;45.20;;;17.20;99.90;;;;;;6180137;23;20008;-73
2023/05/09 02:22:35;;;;;;;74.80;44.08;;;17.20;99.90;;;;;;6178836;23;20004;-73
2023/05/09 02:25:03;;;;;;;82.15;46.70;;;17.10;99.90;;;;;;6180739;23;20019;-73
2023/05/09 02:27:31;;;;;;;81.55;46.20;;;17.10;99.90;;;;;;6179879;23;20001;-73
2023/05/09 02:30:01;;;;;;;80.93;44.75;;;17.10;99.90;;;;;;6180102;23;19997;-73
2023/05/09 02:32:30;;;;;;;77.65;46.15;;;17.00;99.90;;;;;;6153584;23;20025;-72
2023/05/09 02:34:57;;;;;;;80.38;46.28;;;17.00;99.90;;;;;;6180685;23;20048;-72
2023/05/09 02:37:24;;;;;;;76.15;45.03;;;17.00;99.90;;;;;;6179936;23;20005;-72
2023/05/09 02:39:50;;;;;;;77.47;46.97;;;17.00;99.90;;;;;;6180745;23;20004;-74
2023/05/09 02:42:21;;;;;;;76.63;47.33;;;17.00;99.90;;;;;;6179306;23;20098;-73
2023/05/09 02:44:47;;;;;;;82.75;48.28;;;17.00;99.90;;;;;;6180097;23;20005;-73
2023/05/09 02:47:12;;;;;;;83.43;48.08;;;17.00;99.90;;;;;;6179856;23;20011;-73
2023/05/09 02:49:38;;;;;;;79.70;47.97;;;17.00;99.90;;;;;;6180622;23;20084;-73
2023/05/09 02:52:03;;;;;;;79.28;47.53;;;17.00;99.90;;;;;;6180697;23;20044;-73
2023/05/09 02:54:29;;;;;;;83.05;48.08;;;17.00;99.90;;;;;;6179721;23;20072;-73
2023/05/09 02:56:55;;;;;;;80.70;48.75;;;17.00;99.90;;;;;;6180621;23;20076;-73
2023/05/09 02:59:20;;;;;;;82.28;47.05;;;16.90;99.90;;;;;;6179480;23;20035;-72
2023/05/09 03:01:46;;;;;;;82.20;49.03;;;16.90;99.90;;;;;;6180460;23;20001;-74
2023/05/09 03:04:11;;;;;;;79.40;49.33;;;16.90;99.90;;;;;;6180015;23;20688;-73
2023/05/09 03:06:37;;;;;;;89.82;49.22;;;16.90;99.90;;;;;;6180374;23;20091;-73
2023/05/09 03:09:03;;;;;;;83.88;49.42;;;16.90;99.90;;;;;;6180275;23;20078;-73
2023/05/09 03:11:29;;;;;;;85.65;49.17;;;16.90;99.90;;;;;;6180097;23;20051;-73
2023/05/09 03:13:55;;;;;;;82.15;48.55;;;16.80;99.90;;;;;;6153367;23;20343;-73
2023/05/09 03:16:21;;;;;;;80.70;48.30;;;16.80;99.90;;;;;;6179575;23;20051;-73
2023/05/09 03:18:46;;;;;;;80.95;48.28;;;16.80;99.90;;;;;;6180608;23;20012;-73
2023/05/09 03:21:15;;;;;;;77.97;46.38;;;16.80;99.90;;;;;;6179458;23;20005;-73
2023/05/09 03:23:40;;;;;;;76.18;46.88;;;16.80;99.90;;;;;;6178860;23;20006;-74
2023/05/09 03:26:06;;;;;;;80.10;48.17;;;16.80;99.90;;;;;;6180041;23;20028;-74
2023/05/09 03:28:32;;;;;;;75.32;46.38;;;16.80;99.90;;;;;;6179702;23;20449;-73
2023/05/09 03:30:57;;;;;;;73.95;44.28;;;16.90;99.90;;;;;;6182238;23;20005;-73
2023/05/09 03:33:23;;;;;;;69.95;42.97;;;16.80;99.90;;;;;;6181512;23;20009;-73
2023/05/09 03:35:48;;;;;;;69.35;42.45;;;16.90;99.90;;;;;;6182300;23;20062;-73
2023/05/09 03:38:14;;;;;;;74.65;45.08;;;16.80;99.90;;;;;;6181586;23;20005;-73
2023/05/09 03:40:40;;;;;;;70.55;40.88;;;16.80;99.90;;;;;;6182386;23;20005;-73
2023/05/09 03:43:05;;;;;;;65.20;41.97;;;16.80;99.90;;;;;;6181578;23;20080;-73
2023/05/09 03:45:31;;;;;;;65.18;41.67;;;16.80;99.90;;;;;;6181503;23;20001;-73
2023/05/09 03:47:56;;;;;;;67.65;40.38;;;16.80;99.90;;;;;;6182096;23;20001;-74
2023/05/09 03:50:22;;;;;;;66.57;43.20;;;16.80;99.90;;;;;;6180954;23;20069;-73
2023/05/09 03:52:49;;;;;;;60.47;38.45;;;16.80;99.90;;;;;;6155709;23;20012;-73
2023/05/09 03:55:15;;;;;;;63.92;41.75;;;16.80;99.90;;;;;;6181494;23;20173;-73
2023/05/09 03:57:40;;;;;;;61.38;39.33;;;16.80;99.90;;;;;;6181516;23;20001;-73
2023/05/09 04:00:08;;;;;;;63.78;41.58;;;16.80;99.90;;;;;;6181675;23;20005;-73
2023/05/09 04:02:33;;;;;;;66.32;42.25;;;16.80;99.90;;;;;;6181613;23;20005;-73
2023/05/09 04:05:00;;;;;;;64.45;39.90;;;16.80;99.90;;;;;;6181780;23;20032;-73
2023/05/09 04:07:27;;;;;;;69.93;42.30;;;16.80;99.90;;;;;;6181301;23;20001;-72
2023/05/09 04:09:54;;;;;;;65.28;41.58;;;16.80;99.90;;;;;;6181860;23;20004;-73
2023/05/09 04:12:20;;;;;;;60.08;38.50;;;16.70;99.90;;;;;;6180647;23;20016;-73
2023/05/09 04:14:46;;;;;;;56.35;38.38;;;16.80;99.90;;;;;;6181839;23;20087;-73
2023/05/09 04:17:11;;;;;;;56.67;38.15;;;16.80;99.90;;;;;;6181194;23;20419;-73
2023/05/09 04:19:37;;;;;;;54.53;37.42;;;16.80;99.90;;;;;;6182004;23;20439;-73
2023/05/09 04:22:02;;;;;;;57.38;38.80;;;16.80;99.90;;;;;;6155331;23;20012;-73
2023/05/09 04:24:28;;;;;;;54.70;36.78;;;16.80;99.90;;;;;;6181047;23;20017;-73
2023/05/09 04:26:53;;;;;;;63.20;40.72;;;16.80;99.90;;;;;;6181377;23;19994;-73
2023/05/09 04:29:19;;;;;;;53.95;36.70;;;16.80;99.90;;;;;;6181051;23;19997;-72
2023/05/09 04:31:44;;;;;;;54.50;36.53;;;16.80;99.90;;;;;;6155451;23;20007;-73
2023/05/09 04:34:10;;;;;;;52.97;35.15;;;16.70;99.90;;;;;;6181259;23;20052;-73
2023/05/09 04:36:36;;;;;;;56.78;36.10;;;16.70;99.90;;;;;;6154966;23;20459;-74
2023/05/09 04:39:03;;;;;;;49.42;35.28;;;16.70;99.90;;;;;;6181555;23;20084;-73
2023/05/09 04:41:29;;;;;;;50.22;34.38;;;16.70;99.90;;;;;;6154167;23;20128;-73
2023/05/09 04:43:55;;;;;;;47.35;31.80;;;16.70;99.90;;;;;;6181605;23;20040;-74
2023/05/09 04:46:21;;;;;;;43.78;33.25;;;16.70;99.90;;;;;;6180809;23;20084;-73
2023/05/09 04:48:46;;;;;;;44.95;31.52;;;16.70;99.90;;;;;;6181662;23;20226;-73
2023/05/09 04:51:12;;;;;;;48.50;34.17;;;16.60;99.90;;;;;;6180944;23;20171;-73
2023/05/09 04:53:38;;;;;;;46.33;33.35;;;16.70;99.90;;;;;;6181032;23;20001;-73
2023/05/09 04:56:03;;;;;;;47.70;33.63;;;16.70;99.90;;;;;;6181460;23;19997;-73
2023/05/09 04:58:29;;;;;;;49.10;33.72;;;16.70;99.90;;;;;;6154411;23;20322;-73
2023/05/09 05:00:55;;;;;;;42.75;33.47;;;16.70;99.90;;;;;;6181502;23;20108;-73
2023/05/09 05:03:20;;;;;;;47.92;33.00;;;16.80;99.90;;;;;;6180755;23;20025;-73
2023/05/09 05:05:46;;;;;;;45.58;32.03;;;16.80;99.90;;;;;;6181479;23;19997;-73
2023/05/09 05:08:11;;;;;;;44.42;33.03;;;16.80;99.90;;;;;;6153587;23;20025;-73
2023/05/09 05:10:37;;;;;;;44.80;33.15;;;16.80;99.90;;;;;;6155111;23;20008;-73
2023/05/09 05:13:02;;;;;;;48.45;33.55;;;16.80;99.90;;;;;;6181437;23;20024;-74
2023/05/09 05:15:28;;;;;;;47.83;32.95;;;16.90;99.90;;;;;;6154365;23;20036;-73
2023/05/09 05:17:54;;;;;;;46.05;33.60;;;16.90;99.90;;;;;;6181203;23;20021;-73
2023/05/09 05:20:20;;;;;;;42.88;34.88;;;16.90;99.90;;;;;;6178958;23;20012;-73
2023/05/09 05:22:45;;;;;;;43.40;31.33;;;16.90;99.90;;;;;;6180544;23;20027;-73
2023/05/09 05:25:12;;;;;;;44.85;32.83;;;16.90;99.90;;;;;;6180710;23;20004;-73
2023/05/09 05:27:37;;;;;;;47.33;31.77;;;17.00;99.90;;;;;;6180972;23;20084;-73
2023/05/09 05:30:03;;;;;;;41.08;32.65;;;17.00;99.90;;;;;;6181006;23;20020;-73
2023/05/09 05:32:29;;;;;;;41.45;31.52;;;17.10;99.90;;;;;;6154057;23;20036;-73
2023/05/09 05:34:56;;;;;;;41.42;31.15;;;17.10;99.90;;;;;;6154818;23;20012;-73
2023/05/09 05:37:21;;;;;;;42.17;31.75;;;17.20;99.90;;;;;;6153274;23;20387;-73
2023/05/09 05:39:47;;;;;;;40.10;30.20;;;17.30;99.90;;;;;;6181219;23;20001;-74
2023/05/09 05:42:13;;;;;;;42.25;31.35;;;17.30;99.90;;;;;;6178454;23;20021;-73
2023/05/09 05:44:39;;;;;;;37.83;28.33;;;17.40;99.90;;;;;;6180364;23;20031;-73
2023/05/09 05:47:05;;;;;;;41.70;31.38;;;17.40;99.90;;;;;;6180406;23;20005;-73
2023/05/09 05:49:30;;;;;;;38.47;28.58;;;17.50;99.90;;;;;;6152287;23;20390;-73
2023/05/09 05:51:56;;;;;;;40.90;29.23;;;17.50;99.90;;;;;;6180043;23;20004;-73
2023/05/09 05:54:21;;;;;;;35.83;28.38;;;17.60;99.90;;;;;;6180688;23;20043;-73
2023/05/09 05:56:47;;;;;;;34.42;28.50;;;17.60;99.90;;;;;;6181210;23;20070;-73
2023/05/09 05:59:12;;;;;;;36.55;26.95;;;17.60;99.90;;;;;;6180081;23;20130;-73
2023/05/09 06:01:38;;;;;;;36.95;29.20;;;17.60;99.90;;;;;;6180939;23;20009;-74
2023/05/09 06:04:04;;;;;;;33.63;26.40;;;17.60;99.90;;;;;;6180843;23;20002;-73
2023/05/09 06:06:30;;;;;;;37.58;28.60;;;17.60;99.90;;;;;;6153396;23;20001;-73
2023/05/09 06:08:56;;;;;;;33.00;26.10;;;17.60;99.90;;;;;;6180836;23;20100;-75
2023/05/09 06:11:22;;;;;;;32.63;27.25;;;17.60;99.90;;;;;;6153623;23;20419;-75
2023/05/09 06:13:48;;;;;;;33.30;25.35;;;17.70;99.90;;;;;;6181195;23;20441;-75
2023/05/09 06:16:13;;;;;;;31.90;25.02;;;17.70;99.90;;;;;;6180625;23;20076;-75
2023/05/09 06:18:39;;;;;;;28.27;24.40;;;17.80;99.90;;;;;;6180893;23;20304;-75
2023/05/09 06:21:08;;;;;;;25.70;22.70;;;17.80;99.90;;;;;;6180504;23;20009;-74
2023/05/09 06:23:35;;;;;;;24.15;21.27;;;17.80;99.90;;;;;;6180550;23;20001;-73
2023/05/09 06:26:01;;;;;;;28.65;22.13;;;17.80;99.90;;;;;;6180956;23;20000;-73
2023/05/09 06:28:27;;;;;;;25.98;21.25;;;17.80;99.90;;;;;;6153902;23;20497;-74
2023/05/09 06:30:53;;;;;;;24.15;19.55;;;17.80;99.90;;;;;;6180714;23;20005;-74
2023/05/09 06:33:18;;;;;;;22.48;20.08;;;17.90;99.90;;;;;;6180432;23;20005;-73
2023/05/09 06:35:44;;;;;;;26.00;20.83;;;17.90;99.90;;;;;;6180344;23;20025;-74
2023/05/09 06:38:09;;;;;;;22.27;19.73;;;18.10;99.90;;;;;;6180049;23;20001;-74
2023/05/09 06:40:35;;;;;;;22.50;20.13;;;18.10;99.90;;;;;;6179161;23;20063;-74
2023/05/09 06:43:00;;;;;;;24.40;20.27;;;18.20;99.90;;;;;;6179704;23;20005;-74
2023/05/09 06:45:26;;;;;;;21.60;19.13;;;18.30;99.90;;;;;;6153112;23;20075;-74
2023/05/09 06:47:52;;;;;;;22.58;19.70;;;18.40;99.90;;;;;;6180583;23;20068;-74
2023/05/09 06:50:17;;;;;;;24.65;21.50;;;18.50;99.90;;;;;;6178691;23;20068;-74
2023/05/09 06:52:43;;;;;;;24.02;20.98;;;18.60;99.90;;;;;;6180495;23;20001;-75
2023/05/09 06:55:09;;;;;;;24.42;18.92;;;18.70;99.90;;;;;;6179904;23;20057;-74
2023/05/09 06:57:35;;;;;;;24.05;21.55;;;18.80;99.90;;;;;;6180345;23;20088;-75
2023/05/09 07:00:00;;;;;;;21.27;18.95;;;18.90;99.90;;;;;;6180505;23;20021;-75
2023/05/09 07:02:26;;;;;;;21.92;18.08;;;18.90;99.90;;;;;;6176289;23;20009;-74
2023/05/09 07:04:51;;;;;;;24.52;19.77;;;18.90;99.90;;;;;;6177733;23;19997;-75
2023/05/09 07:07:17;;;;;;;23.70;20.15;;;19.00;99.90;;;;;;6179309;23;19998;-75
2023/05/09 07:09:42;;;;;;;22.45;19.38;;;19.00;99.90;;;;;;6179718;23;20073;-75
2023/05/09 07:12:08;;;;;;;21.15;19.00;;;18.90;99.90;;;;;;6179511;23;20000;-74
2023/05/09 07:14:33;;;;;;;22.35;20.00;;;18.90;99.90;;;;;;6177408;23;20076;-75
2023/05/09 07:16:59;;;;;;;22.85;18.77;;;18.90;99.90;;;;;;6178011;23;20005;-74
2023/05/09 07:19:25;;;;;;;21.52;19.23;;;18.90;99.90;;;;;;6177508;23;20024;-74
2023/05/09 07:21:51;;;;;;;20.45;18.48;;;18.80;99.90;;;;;;6178599;23;20032;-74
2023/05/09 07:24:16;;;;;;;19.25;16.45;;;18.80;99.90;;;;;;6178519;23;19997;-74
2023/05/09 07:26:42;;;;;;;18.52;16.65;;;18.80;99.90;;;;;;6178315;23;20009;-75
2023/05/09 07:29:07;;;;;;;19.63;17.55;;;18.90;99.90;;;;;;6179327;23;20077;-74
2023/05/09 07:31:33;;;;;;;24.85;19.20;;;18.90;99.90;;;;;;6179629;23;20043;-75
2023/05/09 07:33:58;;;;;;;20.77;18.73;;;18.90;99.90;;;;;;6152896;23;20032;-74
2023/05/09 07:36:24;;;;;;;20.92;18.75;;;19.00;99.90;;;;;;6152806;23;20001;-74
2023/05/09 07:38:51;;;;;;;20.15;17.33;;;19.10;99.90;;;;;;6178748;23;20005;-74
2023/05/09 07:41:17;;;;;;;19.40;17.42;;;19.10;99.90;;;;;;6175876;23;20001;-74
2023/05/09 07:43:43;;;;;;;20.17;18.08;;;19.20;99.90;;;;;;6179963;23;20012;-73
2023/05/09 07:46:08;;;;;;;22.48;19.40;;;19.20;99.90;;;;;;6152764;23;20001;-74
2023/05/09 07:48:34;;;;;;;20.33;18.33;;;19.20;99.90;;;;;;6177790;23;20516;-73
2023/05/09 07:50:59;;;;;;;20.45;18.15;;;19.30;99.90;;;;;;6179530;23;20391;-73
2023/05/09 07:53:25;;;;;;;19.48;17.63;;;19.40;99.90;;;;;;6177380;23;20279;-73
2023/05/09 07:55:51;;;;;;;21.00;17.27;;;19.50;99.90;;;;;;6177958;23;20347;-73
2023/05/09 07:58:17;;;;;;;21.10;18.92;;;19.60;99.90;;;;;;6178232;23;20013;-73
2023/05/09 08:00:42;;;;;;;20.10;18.02;;;19.60;99.90;;;;;;6151196;23;20032;-73
2023/05/09 08:03:08;;;;;;;19.67;17.67;;;19.60;99.90;;;;;;6178199;23;20056;-72
2023/05/09 08:05:34;;;;;;;18.88;16.85;;;19.60;99.90;;;;;;6178617;23;20087;-73
2023/05/09 08:07:59;;;;;;;22.17;19.90;;;19.60;99.90;;;;;;6179295;23;20001;-73
2023/05/09 08:10:27;;;;;;;21.67;19.33;;;19.60;99.90;;;;;;6177065;23;20080;-73
2023/05/09 08:12:53;;;;;;;20.60;18.33;;;19.60;99.90;;;;;;6178916;23;20495;-73
2023/05/09 08:15:18;;;;;;;21.73;19.42;;;19.60;99.90;;;;;;6179393;23;20028;-73
2023/05/09 08:17:44;;;;;;;21.92;19.17;;;19.70;99.90;;;;;;6180243;23;20008;-73
2023/05/09 08:20:10;;;;;;;20.20;18.13;;;19.60;99.90;;;;;;6180399;23;19997;-73
2023/05/09 08:22:38;;;;;;;20.27;18.38;;;19.60;99.90;;;;;;6180031;23;20135;-73
2023/05/09 08:25:04;;;;;;;18.58;16.65;;;19.70;99.90;;;;;;6179900;23;20025;-73
2023/05/09 08:27:29;;;;;;;21.50;19.50;;;19.80;99.90;;;;;;6180451;23;20323;-74
2023/05/09 08:29:55;;;;;;;21.45;19.17;;;19.80;99.90;;;;;;6181203;23;20009;-73
2023/05/09 08:32:20;;;;;;;22.70;19.13;;;19.80;99.90;;;;;;6177959;23;20005;-73
2023/05/09 08:34:46;;;;;;;21.05;18.83;;;19.80;99.90;;;;;;6181033;23;20005;-74
2023/05/09 08:37:11;;;;;;;19.85;17.77;;;19.80;99.90;;;;;;6179933;23;20419;-74
2023/05/09 08:39:37;;;;;;;22.63;20.02;;;19.80;99.90;;;;;;6180564;23;19997;-73
2023/05/09 08:42:02;;;;;;;21.52;19.52;;;19.80;99.90;;;;;;6179324;23;20311;-73
2023/05/09 08:44:30;;;;;;;21.45;19.23;;;19.70;99.90;;;;;;6179676;23;20103;-74
2023/05/09 08:46:58;;;;;;;21.92;19.90;;;19.60;99.90;;;;;;6180218;23;20005;-73
2023/05/09 08:49:25;;;;;;;20.50;18.50;;;19.60;99.90;;;;;;6179254;23;20037;-74
2023/05/09 08:51:51;;;;;;;23.90;21.65;;;19.60;99.90;;;;;;6180907;23;20008;-73
2023/05/09 08:54:17;;;;;;;21.67;19.58;;;19.50;99.90;;;;;;6178835;23;20009;-73
2023/05/09 08:56:43;;;;;;;24.17;20.45;;;19.50;99.90;;;;;;6180181;23;20005;-73
2023/05/09 08:59:09;;;;;;;24.35;20.35;;;19.40;99.90;;;;;;6180303;23;20367;-73
2023/05/09 09:01:35;;;;;;;22.23;19.92;;;19.30;99.90;;;;;;6179482;23;20100;-73
2023/05/09 09:04:05;;;;;;;23.13;20.30;;;19.20;99.90;;;;;;6180231;23;20376;-73
2023/05/09 09:06:33;;;;;;;22.85;20.55;;;19.10;99.90;;;;;;6179236;23;20160;-72
2023/05/09 09:08:59;;;;;;;20.70;18.58;;;19.00;99.90;;;;;;6153758;23;20001;-72
2023/05/09 09:11:29;;;;;;;19.73;17.83;;;18.90;99.90;;;;;;6152584;23;20388;-73
2023/05/09 09:13:58;;;;;;;19.67;17.67;;;18.80;99.90;;;;;;6180363;23;19997;-73
2023/05/09 09:16:25;;;;;;;22.08;16.70;;;18.70;99.90;;;;;;6176310;23;20008;-72
2023/05/09 09:18:53;;;;;;;17.88;16.08;;;18.70;99.90;;;;;;6180180;23;20023;-73
2023/05/09 09:21:19;;;;;;;16.65;15.05;;;18.60;99.90;;;;;;6179972;23;20005;-72
2023/05/09 09:23:46;;;;;;;17.85;16.13;;;18.50;99.90;;;;;;6181901;23;20024;-73
2023/05/09 09:26:12;;;;;;;15.93;14.32;;;18.50;99.90;;;;;;6152813;23;20012;-73
2023/05/09 09:28:38;;;;;;;17.92;16.20;;;18.50;99.90;;;;;;6180155;23;20375;-73
2023/05/09 09:31:24;;;;;;;16.08;14.57;;;18.40;99.90;;;;;;6179293;23;20433;-74
2023/05/09 09:33:50;;;;;;;16.83;15.23;;;18.40;99.90;;;;;;6180948;23;20040;-73
2023/05/09 09:36:25;;;;;;;16.02;14.40;;;18.40;99.90;;;;;;6151936;23;20009;-73
2023/05/09 09:38:59;;;;;;;17.15;15.70;;;18.40;99.90;;;;;;6179623;23;20001;-73
2023/05/09 09:41:34;;;;;;;15.75;14.35;;;18.40;99.90;;;;;;6178634;23;20009;-73
2023/05/09 09:44:07;;;;;;;16.13;14.48;;;18.40;99.90;;;;;;6179916;23;20001;-73
2023/05/09 09:46:53;;;;;;;15.03;13.40;;;18.50;99.90;;;;;;6177909;23;20371;-73
2023/05/09 09:49:23;;;;;;;14.40;13.05;;;18.50;99.90;;;;;;6177369;23;20057;-73
2023/05/09 09:51:57;;;;;;;13.73;12.32;;;18.60;99.90;;;;;;6180423;23;20458;-73
2023/05/09 09:54:26;;;;;;;14.82;13.27;;;18.70;99.90;;;;;;6179012;23;20005;-73
2023/05/09 09:56:53;;;;;;;12.63;11.43;;;18.80;99.90;;;;;;6153833;23;20012;-73
2023/05/09 09:59:21;;;;;;;11.90;10.80;;;19.00;99.90;;;;;;6177823;23;20012;-73
2023/05/09 10:01:59;;;;;;;13.50;11.85;;;19.10;99.90;;;;;;6180045;23;20036;-73
2023/05/09 10:04:28;;;;;;;11.15;10.05;;;19.20;99.90;;;;;;6179856;23;20040;-74
2023/05/09 10:06:55;;;;;;;11.77;10.52;;;19.30;99.90;;;;;;6180256;23;20009;-73
2023/05/09 10:09:25;;;;;;;10.50;9.50;;;19.50;99.90;;;;;;6178136;23;20001;-73
2023/05/09 10:11:53;;;;;;;10.88;9.18;;;19.60;99.90;;;;;;6179490;23;20028;-74
2023/05/09 10:14:23;;;;;;;9.18;8.25;;;19.70;99.90;;;;;;6178560;23;20016;-74
2023/05/09 10:16:54;;;;;;;9.50;8.60;;;19.80;99.90;;;;;;6152450;23;20063;-73
2023/05/09 10:19:21;;;;;;;8.93;8.07;;;19.80;99.90;;;;;;6179094;23;20068;-73
2023/05/09 10:21:52;;;;;;;8.43;7.70;;;19.70;99.90;;;;;;6179259;23;20001;-73
2023/05/09 10:24:27;;;;;;;8.65;7.68;;;19.60;99.90;;;;;;6179639;23;20001;-72
2023/05/09 10:26:58;;;;;;;10.52;8.57;;;19.60;99.90;;;;;;6179847;23;20092;-73
2023/05/09 10:29:26;;;;;;;9.73;8.90;;;19.60;99.90;;;;;;6178858;23;20392;-72
2023/05/09 10:31:56;;;;;;;9.52;8.43;;;19.60;99.90;;;;;;6178706;23;20001;-73
2023/05/09 10:34:25;;;;;;;9.63;8.73;;;19.60;99.90;;;;;;6153239;23;20112;-73
2023/05/09 10:36:51;;;;;;;9.63;8.77;;;19.50;99.90;;;;;;6180281;23;20094;-73
2023/05/09 10:39:17;;;;;;;10.75;8.95;;;19.50;99.90;;;;;;6179227;23;20419;-73
2023/05/09 10:41:43;;;;;;;9.52;8.57;;;19.40;99.90;;;;;;6177958;23;20040;-73
2023/05/09 10:44:09;;;;;;;9.52;8.73;;;19.40;99.90;;;;;;6177589;23;20011;-73
2023/05/09 10:46:35;;;;;;;10.95;9.90;;;19.30;99.90;;;;;;6179827;23;20004;-73
2023/05/09 10:49:02;;;;;;;10.35;9.55;;;19.30;99.90;;;;;;6180030;23;20004;-74
2023/05/09 10:51:27;;;;;;;11.18;10.25;;;19.20;99.90;;;;;;6179453;23;20008;-73
2023/05/09 10:53:55;;;;;;;12.00;10.88;;;19.00;99.90;;;;;;6178351;23;20330;-73
2023/05/09 10:56:34;;;;;;;10.98;9.93;;;19.00;99.90;;;;;;6152104;23;20009;-73
2023/05/09 10:59:00;;;;;;;10.82;9.80;;;19.00;99.90;;;;;;6179587;23;20001;-73
2023/05/09 11:01:35;;;;;;;12.55;11.35;;;18.90;99.90;;;;;;6178915;23;20068;-73
2023/05/09 11:04:07;;;;;;;10.98;10.07;;;18.90;99.90;;;;;;6152236;23;20005;-73
2023/05/09 11:06:51;;;;;;;10.50;9.65;;;18.80;99.90;;;;;;6152785;23;20005;-73
2023/05/09 11:09:33;;;;;;;12.77;11.70;;;18.70;99.90;;;;;;6178744;23;19998;-73
2023/05/09 11:12:05;;;;;;;10.80;9.80;;;18.70;99.90;;;;;;6179069;23;20012;-73
2023/05/09 11:14:36;;;;;;;11.23;10.32;;;18.70;99.90;;;;;;6177036;23;20012;-72
2023/05/09 11:17:25;;;;;;;14.10;11.23;;;18.60;99.90;;;;;;6152774;23;20005;-73
2023/05/09 11:19:50;;;;;;;10.73;9.70;;;18.60;99.90;;;;;;6155886;23;20012;-73
2023/05/09 11:22:26;;;;;;;9.00;8.20;;;18.50;99.90;;;;;;6178783;23;20001;-73
2023/05/09 11:25:13;;;;;;;8.50;7.57;;;18.50;99.90;;;;;;6178317;23;19997;-73
2023/05/09 11:27:43;;;;;;;5.65;5.20;;;18.40;99.90;;;;;;6179392;23;20081;-72
2023/05/09 11:30:11;;;;;;;7.13;6.53;;;18.30;99.90;;;;;;6179801;23;20084;-72
2023/05/09 11:32:43;;;;;;;6.82;6.13;;;18.30;99.90;;;;;;6153628;23;20008;-72
2023/05/09 11:35:18;;;;;;;7.50;6.90;;;18.20;99.90;;;;;;6177336;23;20010;-73
2023/05/09 11:37:46;;;;;;;7.22;6.53;;;18.10;99.90;;;;;;6179130;23;20096;-72
2023/05/09 11:40:14;;;;;;;8.30;6.35;;;18.10;99.90;;;;;;6178203;23;20069;-73
2023/05/09 11:42:54;;;;;;;7.90;7.18;;;18.10;99.90;;;;;;6177877;23;20097;-72
2023/05/09 11:45:21;;;;;;;6.13;5.63;;;18.10;99.90;;;;;;6177244;23;20228;-72
2023/05/09 11:47:47;;;;;;;8.05;6.47;;;18.10;99.90;;;;;;6178662;23;20008;-72
2023/05/09 11:50:14;;;;;;;6.47;5.88;;;18.10;99.90;;;;;;6179614;23;19997;-73
2023/05/09 11:52:41;;;;;;;6.15;5.43;;;18.10;99.90;;;;;;6180328;23;20400;-73
2023/05/09 11:55:09;;;;;;;7.65;5.68;;;18.10;99.90;;;;;;6180821;23;20326;-73
2023/05/09 11:57:38;;;;;;;6.57;5.53;;;18.10;99.90;;;;;;6178794;23;20093;-73
2023/05/09 12:00:05;;;;;;;8.63;5.82;;;18.10;99.90;;;;;;6180814;23;20001;-73
2023/05/09 12:02:30;;;;;;;6.18;5.65;;;18.20;99.90;;;;;;6180466;23;20431;-73
2023/05/09 12:05:12;;;;;;;7.00;6.38;;;18.30;99.90;;;;;;6180936;23;19997;-73
2023/05/09 12:07:38;;;;;;;7.00;6.45;;;18.40;99.90;;;;;;6179845;23;20061;-73
2023/05/09 12:10:09;;;;;;;6.95;6.35;;;18.40;99.90;;;;;;6180765;23;19997;-72
2023/05/09 12:12:36;;;;;;;6.55;5.57;;;18.40;99.90;;;;;;6181324;23;20001;-72
2023/05/09 12:15:03;;;;;;;5.82;5.32;;;18.40;99.90;;;;;;6181628;23;20061;-73
2023/05/09 12:17:30;;;;;;;7.07;5.13;;;18.40;99.90;;;;;;6180173;23;20011;-72
2023/05/09 12:19:58;;;;;;;5.53;4.78;;;18.30;99.90;;;;;;6180237;23;20330;-72
2023/05/09 12:22:24;;;;;;;4.72;4.25;;;18.40;99.90;;;;;;6180416;23;20009;-73
2023/05/09 12:24:49;;;;;;;4.15;3.78;;;18.40;99.90;;;;;;6180855;23;19993;-73
2023/05/09 12:27:15;;;;;;;4.78;4.38;;;18.40;99.90;;;;;;6179312;23;20088;-73
2023/05/09 12:29:44;;;;;;;5.22;4.15;;;18.50;99.90;;;;;;6180721;23;20080;-73
2023/05/09 12:32:11;;;;;;;6.20;4.18;;;18.40;99.90;;;;;;6181955;23;20484;-72